Fresno, CA

2:26 PM PST on January 30, 2015 (GMT -0800)
Northeast Fresno | Change Station
CLOSE
Current Station
Personal Weather Station
Location: Fresno, CA
Elevation: 370 ft
Nearby Weather Stations

Elev 370 ft 36.86 °N, 119.75 °W | Updated 4 seconds ago

Mostly Cloudy
Mostly Cloudy
64.9 °F
Feels Like 64.9 °F
N
0.0
Wind Variable Wind from NNE
Gusts 0.0 mph

Today
High -- | Low -- °F
--% Chance of Precip.
Yesterday
High -- | Low -- °F
Precip. -- in
7:03 AM 5:22 PM
Waxing Gibbous, 85% visible
Pressure 29.91 in
Visibility 4.0 miles
Clouds Scattered Clouds 2900 ft
Dew Point 55 °F
Humidity 70%
Rainfall 0.00 in
Snow Depth Not available.
UV 2 out of 12
Pollen 5.50 out of 12
Air Quality Not available.
Flu Activity Not available.
SPECI KFAT 302203Z 05003KT 4SM HZ SCT029 17/09 A2991 RMK AO2 T01670094

More Conditions Fewer Conditions

Pressure 29.91 in
Visibility 4.0 miles
Clouds Scattered Clouds 2900 ft
Dew Point 55 °F
Humidity 70%
Rainfall 0.00 in
Snow Depth Not available.
UV 2 out of 12
Pollen 5.50 out of 12
Air Quality Not available.
Flu Activity Not available.
SPECI KFAT 302203Z 05003KT 4SM HZ SCT029 17/09 A2991 RMK AO2 T01670094

More Conditions Fewer Conditions

10-Day Weather Forecast

Almanac

Astronomy

Jan. 30, 2015 Rise Set
Actual Time
Civil Twilight
Nautical Twilight
Astronomical Twilight
Moon
Length of Visible Light
Length of Day
Tomorrow will be .
, % of the Moon is Illuminated

Today's Extremes

State Highs State Lows

Community

WunderPhotos

Upload Photos

1,791,904 photos uploaded!

WunderBlogs® & News

Nearby

Air Quality

  Air Quality AQ Index Pollutant
Not available.

Snow Depth

Station Depth Elevation

Earthquake Activity

City Distance Mag. Time & Date
Minimum magnitude displayed is 2.5.

Coastal Water Temperatures

Place Temperature

Nearby Weather Stations